createdAt,value
2022-09-15T00:01:12.155Z,101015.50
2022-09-15T00:03:40.331Z,101020.53
2022-09-15T00:06:09.620Z,101027.63
2022-09-15T00:08:37.408Z,101024.00
2022-09-15T00:11:09.860Z,101031.91
2022-09-15T00:13:39.120Z,101030.97
2022-09-15T00:16:07.505Z,101029.97
2022-09-15T00:18:36.699Z,101031.50
2022-09-15T00:21:09.223Z,101033.00
2022-09-15T00:23:37.992Z,101030.16
2022-09-15T00:26:11.359Z,101027.69
2022-09-15T00:28:39.643Z,101032.69
2022-09-15T00:31:09.846Z,101028.34
2022-09-15T00:33:37.466Z,101026.50
2022-09-15T00:36:08.551Z,101020.31
2022-09-15T00:38:37.355Z,101031.03
2022-09-15T00:41:06.959Z,101034.75
2022-09-15T00:43:50.824Z,101034.75
2022-09-15T00:46:24.859Z,101039.31
2022-09-15T00:49:07.548Z,101041.75
2022-09-15T00:51:53.335Z,101040.72
2022-09-15T00:54:26.961Z,101039.09
2022-09-15T00:56:57.560Z,101040.13
2022-09-15T00:59:28.790Z,101046.75
2022-09-15T01:02:03.538Z,101045.34
2022-09-15T01:04:31.119Z,101044.53
2022-09-15T01:07:04.071Z,101056.09
2022-09-15T01:09:42.074Z,101048.84
2022-09-15T01:12:09.572Z,101055.00
2022-09-15T01:14:37.144Z,101069.03
2022-09-15T01:17:38.906Z,101061.56
2022-09-15T01:20:09.215Z,101064.03
2022-09-15T01:23:01.067Z,101059.50
2022-09-15T01:25:28.530Z,101057.63
2022-09-15T01:28:33.208Z,101058.69
2022-09-15T01:31:58.521Z,101064.03
2022-09-15T01:34:30.507Z,101055.78
2022-09-15T01:37:03.615Z,101053.91
2022-09-15T01:39:37.908Z,101057.41
2022-09-15T01:42:12.940Z,101060.31
2022-09-15T01:44:49.776Z,101036.03
2022-09-15T01:47:20.811Z,101052.28
2022-09-15T01:50:07.526Z,101057.03
2022-09-15T01:52:35.356Z,101049.66
2022-09-15T01:55:12.464Z,101047.72
2022-09-15T01:57:39.984Z,101052.66
2022-09-15T02:00:08.077Z,101057.78
2022-09-15T02:02:44.290Z,101055.78
2022-09-15T02:05:45.525Z,101056.97
2022-09-15T02:08:30.423Z,101054.72
2022-09-15T02:11:21.767Z,101055.78
2022-09-15T02:14:09.945Z,101060.31
2022-09-15T02:16:39.866Z,101056.66
2022-09-15T02:19:19.966Z,101056.09
2022-09-15T02:22:03.096Z,101058.78
2022-09-15T02:24:37.862Z,101065.84
2022-09-15T02:27:15.866Z,101062.78
2022-09-15T02:29:47.213Z,101064.28
2022-09-15T02:32:17.903Z,101064.28
2022-09-15T02:34:51.718Z,101064.06
2022-09-15T02:37:22.267Z,101069.66
2022-09-15T02:39:55.790Z,101071.28
2022-09-15T02:42:25.295Z,101060.63
2022-09-15T02:44:52.997Z,101067.19
2022-09-15T02:47:20.920Z,101064.72
2022-09-15T02:49:48.511Z,101068.22
2022-09-15T02:52:16.128Z,101070.50
2022-09-15T02:54:43.857Z,101076.69
2022-09-15T02:57:11.402Z,101071.56
2022-09-15T02:59:57.443Z,101076.34
2022-09-15T03:02:25.561Z,101068.53
2022-09-15T03:04:53.137Z,101078.88
2022-09-15T03:07:20.752Z,101074.09
2022-09-15T03:09:48.280Z,101073.50
2022-09-15T03:12:16.246Z,101073.50
2022-09-15T03:14:44.673Z,101073.94
2022-09-15T03:17:12.108Z,101069.03
2022-09-15T03:19:39.624Z,101073.19
2022-09-15T03:22:07.412Z,101072.59
2022-09-15T03:24:35.085Z,101064.41
2022-09-15T03:27:02.766Z,101072.88
2022-09-15T03:29:30.254Z,101073.31
2022-09-15T03:31:58.192Z,101075.41
2022-09-15T03:34:25.691Z,101079.06
2022-09-15T03:36:53.157Z,101074.38
2022-09-15T03:39:20.840Z,101077.00
2022-09-15T03:41:48.553Z,101072.59
2022-09-15T03:44:16.164Z,101072.22
2022-09-15T03:46:43.626Z,101059.78
2022-09-15T03:49:11.073Z,101065.59
2022-09-15T03:51:38.609Z,101061.44
2022-09-15T03:54:06.100Z,101071.19
2022-09-15T03:56:33.775Z,101065.34
2022-09-15T03:59:02.948Z,101061.66
2022-09-15T04:01:31.050Z,101062.41
2022-09-15T04:03:59.269Z,101059.81
2022-09-15T04:06:27.265Z,101052.00
2022-09-15T04:08:55.357Z,101053.91
2022-09-15T04:11:23.471Z,101056.47
2022-09-15T04:13:50.915Z,101059.44
2022-09-15T04:16:20.549Z,101075.63
2022-09-15T04:18:48.069Z,101073.25
2022-09-15T04:21:18.424Z,101062.31
2022-09-15T04:23:46.935Z,101068.63
2022-09-15T04:26:23.326Z,101067.19
2022-09-15T04:28:50.920Z,101065.38
2022-09-15T04:31:20.390Z,101061.63
2022-09-15T04:33:48.948Z,101061.28
2022-09-15T04:36:19.456Z,101065.25
2022-09-15T04:38:47.561Z,101058.75
2022-09-15T04:41:15.758Z,101061.09
2022-09-15T04:43:44.052Z,101050.66
2022-09-15T04:46:13.068Z,101056.44
2022-09-15T04:48:42.148Z,101066.47
2022-09-15T04:51:16.271Z,101060.03
2022-09-15T04:53:44.641Z,101054.50
2022-09-15T04:56:15.108Z,101050.31
2022-09-15T04:58:45.592Z,101046.56
2022-09-15T05:01:25.012Z,101038.44
2022-09-15T05:03:53.956Z,101031.72
2022-09-15T05:06:24.161Z,101042.31
2022-09-15T05:08:55.220Z,101029.41
2022-09-15T05:11:23.308Z,101042.13
2022-09-15T05:13:51.454Z,101036.69
2022-09-15T05:16:21.949Z,101038.34
2022-09-15T05:18:51.127Z,101033.59
2022-09-15T05:21:20.582Z,101035.88
2022-09-15T05:23:49.368Z,101029.47
2022-09-15T05:26:21.533Z,101036.97
2022-09-15T05:28:49.204Z,101037.78
2022-09-15T05:31:23.091Z,101040.84
2022-09-15T05:33:51.801Z,101047.84
2022-09-15T05:36:21.504Z,101050.91
2022-09-15T05:38:48.961Z,101039.03
2022-09-15T05:41:19.824Z,101043.44
2022-09-15T05:43:49.953Z,101044.03
2022-09-15T05:46:19.463Z,101035.78
2022-09-15T05:48:47.501Z,101031.09
2022-09-15T05:51:15.749Z,101032.66
2022-09-15T05:53:43.262Z,101047.53
2022-09-15T05:56:13.346Z,101044.59
2022-09-15T05:58:42.633Z,101052.69
2022-09-15T06:01:14.952Z,101057.88
2022-09-15T06:03:43.218Z,101052.28
2022-09-15T06:06:12.432Z,101059.91
2022-09-15T06:08:57.411Z,101058.34
2022-09-15T06:11:28.466Z,101056.47
2022-09-15T06:14:00.327Z,101053.22
2022-09-15T06:16:28.136Z,101060.75
2022-09-15T06:18:55.739Z,101054.78
2022-09-15T06:21:27.331Z,101060.75
2022-09-15T06:24:03.837Z,101047.16
2022-09-15T06:26:31.426Z,101039.59
2022-09-15T06:29:03.719Z,101051.69
2022-09-15T06:31:36.130Z,101045.84
2022-09-15T06:34:10.367Z,101043.06
2022-09-15T06:36:39.333Z,101055.13
2022-09-15T06:39:06.969Z,101046.72
2022-09-15T06:42:00.686Z,101045.75
2022-09-15T06:44:26.402Z,101048.47
2022-09-15T06:46:53.955Z,101036.13
2022-09-15T06:49:22.065Z,101034.63
2022-09-15T06:51:49.543Z,101035.22
2022-09-15T06:54:17.091Z,101036.44
2022-09-15T06:56:45.240Z,101036.63
2022-09-15T06:59:14.081Z,101036.94
2022-09-15T07:01:42.166Z,101036.94
2022-09-15T07:04:11.514Z,101040.56
2022-09-15T07:06:40.069Z,101032.06
2022-09-15T07:09:07.736Z,101033.31
2022-09-15T07:11:35.382Z,101031.19
2022-09-15T07:14:04.176Z,101041.09
2022-09-15T07:16:32.078Z,101027.00
2022-09-15T07:19:02.646Z,101035.78
2022-09-15T07:21:30.176Z,101025.81
2022-09-15T07:23:58.336Z,101025.28
2022-09-15T07:26:28.003Z,100997.00
2022-09-15T07:28:58.292Z,101010.78
2022-09-15T07:31:28.186Z,101011.97
2022-09-15T07:33:55.956Z,101010.56
2022-09-15T07:36:23.497Z,101017.78
2022-09-15T07:38:51.588Z,101013.91
2022-09-15T07:41:23.473Z,101015.25
2022-09-15T07:43:57.337Z,100999.22
2022-09-15T07:46:26.407Z,101008.41
2022-09-15T07:48:57.721Z,101006.22
2022-09-15T07:51:28.298Z,101000.84
2022-09-15T07:53:56.192Z,100988.63
2022-09-15T07:56:24.237Z,100982.31
2022-09-15T07:58:54.825Z,100988.75
2022-09-15T08:01:24.269Z,100994.66
2022-09-15T08:03:53.034Z,100977.66
2022-09-15T08:06:23.168Z,100984.75
2022-09-15T08:08:56.336Z,100974.28
2022-09-15T08:11:28.817Z,100976.94
2022-09-15T08:13:56.569Z,100965.09
2022-09-15T08:16:25.318Z,100973.78
2022-09-15T08:18:54.511Z,100977.22
2022-09-15T08:21:22.624Z,100975.41
2022-09-15T08:23:58.824Z,100979.22
2022-09-15T08:26:27.330Z,100974.22
2022-09-15T08:29:01.149Z,100971.94
2022-09-15T08:31:29.119Z,100967.63
2022-09-15T08:33:57.115Z,100965.78
2022-09-15T08:36:28.205Z,100960.09
2022-09-15T08:38:56.610Z,100961.91
2022-09-15T08:41:36.687Z,100967.56
2022-09-15T08:44:32.373Z,100973.75
2022-09-15T08:47:28.778Z,100961.22
2022-09-15T08:50:27.589Z,100972.66
2022-09-15T08:53:28.813Z,100945.69
2022-09-15T08:56:00.333Z,100943.16
2022-09-15T08:58:35.063Z,100948.91
2022-09-15T09:01:11.559Z,100942.06
2022-09-15T09:03:41.691Z,100948.31
2022-09-15T09:06:44.815Z,100938.22
2022-09-15T09:09:17.985Z,100943.50
2022-09-15T09:12:04.083Z,100948.16
2022-09-15T09:15:01.219Z,100950.19
2022-09-15T09:17:36.192Z,100945.88
2022-09-15T09:20:29.822Z,100943.50
2022-09-15T09:23:00.639Z,100940.72
2022-09-15T09:25:28.576Z,100947.50
2022-09-15T09:27:58.724Z,100941.19
2022-09-15T09:30:29.881Z,100936.41
2022-09-15T09:33:05.199Z,100947.16
2022-09-15T09:35:38.857Z,100935.47
2022-09-15T09:38:10.494Z,100925.94
2022-09-15T09:40:43.375Z,100923.69
2022-09-15T09:43:11.644Z,100937.38
2022-09-15T09:45:39.266Z,100944.38
2022-09-15T09:48:19.214Z,100933.50
2022-09-15T09:50:47.650Z,100936.66
2022-09-15T09:53:28.076Z,100929.03
2022-09-15T09:56:13.365Z,100930.63
2022-09-15T09:58:40.912Z,100930.78
2022-09-15T10:01:14.910Z,100925.81
2022-09-15T10:03:44.059Z,100925.69
2022-09-15T10:06:19.103Z,100945.25
2022-09-15T10:08:54.664Z,100933.31
2022-09-15T10:11:22.996Z,100929.19
2022-09-15T10:13:55.593Z,100937.44
2022-09-15T10:16:23.390Z,100934.44
2022-09-15T10:18:54.376Z,100938.47
2022-09-15T10:21:26.434Z,100940.97
2022-09-15T10:23:54.064Z,100932.59
2022-09-15T10:26:34.802Z,100931.19
2022-09-15T10:29:19.527Z,100926.06
2022-09-15T10:31:47.149Z,100914.53
2022-09-15T10:34:32.944Z,100921.09
2022-09-15T10:37:29.475Z,100923.34
2022-09-15T10:40:00.445Z,100913.78
2022-09-15T10:42:59.216Z,100925.09
2022-09-15T10:45:40.744Z,100916.03
2022-09-15T10:48:43.662Z,100915.28
2022-09-15T10:51:29.380Z,100918.53
2022-09-15T10:54:02.961Z,100906.38
2022-09-15T10:56:43.048Z,100908.00
2022-09-15T10:59:34.560Z,100910.56
2022-09-15T11:02:08.503Z,100914.09
2022-09-15T11:04:45.215Z,100916.97
2022-09-15T11:07:32.588Z,100913.75
2022-09-15T11:10:40.060Z,100908.34
2022-09-15T11:13:50.592Z,100910.78
2022-09-15T11:16:44.204Z,100896.47
2022-09-15T11:19:45.767Z,100907.16
2022-09-15T11:22:49.477Z,100900.16
2022-09-15T11:25:28.281Z,100892.75
2022-09-15T11:28:10.321Z,100884.59
2022-09-15T11:30:47.671Z,100880.06
2022-09-15T11:33:25.906Z,100892.09
2022-09-15T11:36:11.971Z,100892.53
2022-09-15T11:39:04.175Z,100886.53
2022-09-15T11:41:35.831Z,100895.78
2022-09-15T11:44:19.900Z,100889.69
2022-09-15T11:47:05.534Z,100903.28
2022-09-15T11:49:46.931Z,100900.81
2022-09-15T11:52:22.730Z,100900.78
2022-09-15T11:55:18.669Z,100895.44
2022-09-15T11:57:56.265Z,100895.94
2022-09-15T12:00:23.782Z,100887.38
2022-09-15T12:02:57.721Z,100897.13
2022-09-15T12:05:43.876Z,100896.31
2022-09-15T12:08:22.104Z,100896.06
2022-09-15T12:10:53.804Z,100900.13
2022-09-15T12:13:24.295Z,100891.22
2022-09-15T12:15:54.840Z,100894.34
2022-09-15T12:18:40.780Z,100886.88
2022-09-15T12:21:20.156Z,100874.97
2022-09-15T12:23:53.207Z,100886.94
2022-09-15T12:26:26.437Z,100889.53
2022-09-15T12:28:58.789Z,100893.91
2022-09-15T12:31:35.928Z,100886.56
2022-09-15T12:34:03.964Z,100891.44
2022-09-15T12:36:31.633Z,100890.78
2022-09-15T12:39:00.966Z,100880.56
2022-09-15T12:41:29.490Z,100887.03
2022-09-15T12:44:02.627Z,100883.19
2022-09-15T12:46:30.285Z,100891.75
2022-09-15T12:49:03.451Z,100885.88
2022-09-15T12:51:31.390Z,100888.19
2022-09-15T12:54:04.955Z,100891.53
2022-09-15T12:56:34.457Z,100898.34
2022-09-15T12:59:07.528Z,100894.25
2022-09-15T13:01:56.369Z,100904.69
2022-09-15T13:04:29.581Z,100896.63
2022-09-15T13:07:15.262Z,100893.38
2022-09-15T13:09:58.887Z,100894.44
2022-09-15T13:17:14.507Z,100913.09
2022-09-15T13:19:49.216Z,100913.53
2022-09-15T13:22:31.950Z,100919.84
2022-09-15T13:25:18.422Z,100907.91
2022-09-15T13:27:50.578Z,100916.59
2022-09-15T13:30:21.636Z,100919.59
2022-09-15T13:33:08.416Z,100919.59
2022-09-15T13:36:00.035Z,100913.13
2022-09-15T13:38:46.443Z,100920.75
2022-09-15T13:41:40.357Z,100915.66
2022-09-15T13:44:19.301Z,100917.34
2022-09-15T13:47:09.078Z,100917.94
2022-09-15T13:50:15.291Z,100940.50
2022-09-15T13:52:53.578Z,100929.97
2022-09-15T13:55:28.118Z,100924.84
2022-09-15T14:00:54.183Z,100932.28
2022-09-15T14:03:28.943Z,100939.34
2022-09-15T14:05:57.165Z,100934.22
2022-09-15T14:08:33.673Z,100941.81
2022-09-15T14:11:08.913Z,100944.53
2022-09-15T14:13:41.234Z,100954.56
2022-09-15T14:16:20.259Z,100954.03
2022-09-15T14:18:47.738Z,100950.78
2022-09-15T14:21:34.956Z,100950.50
2022-09-15T14:24:07.258Z,100948.88
2022-09-15T14:26:36.122Z,100952.41
2022-09-15T14:29:06.626Z,100957.84
2022-09-15T14:31:41.313Z,100960.00
2022-09-15T14:34:21.995Z,100965.44
2022-09-15T14:37:21.117Z,100960.56
2022-09-15T14:39:56.512Z,100964.09
2022-09-15T14:42:31.285Z,100959.47
2022-09-15T14:48:01.629Z,100954.91
2022-09-15T14:50:33.247Z,100943.25
2022-09-15T14:53:28.479Z,100962.22
2022-09-15T14:56:07.030Z,100957.91
2022-09-15T14:58:43.706Z,100958.44
2022-09-15T15:01:22.890Z,100958.47
2022-09-15T15:04:00.540Z,100963.34
2022-09-15T15:06:38.286Z,100958.97
2022-09-15T15:09:30.447Z,100964.97
2022-09-15T15:12:20.925Z,100964.69
2022-09-15T15:14:48.441Z,100972.28
2022-09-15T15:17:54.876Z,100971.22
2022-09-15T15:20:25.901Z,100970.94
2022-09-15T15:23:13.350Z,100970.94
2022-09-15T15:25:42.022Z,100977.97
2022-09-15T15:28:36.210Z,100985.28
2022-09-15T15:31:23.911Z,100966.81
2022-09-15T15:34:00.485Z,100963.84
2022-09-15T15:36:30.205Z,100960.31
2022-09-15T15:39:04.359Z,100963.81
2022-09-15T15:41:35.815Z,100947.56
2022-09-15T15:44:08.364Z,100952.97
2022-09-15T15:46:58.079Z,100959.44
2022-09-15T15:49:27.970Z,100951.03
2022-09-15T15:51:57.687Z,100958.59
2022-09-15T15:54:27.037Z,100960.19
2022-09-15T15:56:55.572Z,100956.41
2022-09-15T15:59:23.055Z,100956.38
2022-09-15T16:01:55.405Z,100954.75
2022-09-15T16:04:23.090Z,100957.16
2022-09-15T16:06:51.202Z,100951.19
2022-09-15T16:09:20.976Z,100963.63
2022-09-15T16:11:48.923Z,100963.03
2022-09-15T16:14:16.480Z,100953.56
2022-09-15T16:16:44.861Z,100954.91
2022-09-15T16:19:12.892Z,100963.28
2022-09-15T16:21:42.679Z,100954.34
2022-09-15T16:24:15.391Z,100944.59
2022-09-15T16:26:44.243Z,100952.72
2022-09-15T16:29:12.216Z,100942.16
2022-09-15T16:31:40.228Z,100947.56
2022-09-15T16:34:13.849Z,100936.47
2022-09-15T16:36:41.254Z,100942.69
2022-09-15T16:39:08.808Z,100933.22
2022-09-15T16:41:39.381Z,100936.19
2022-09-15T16:44:16.254Z,100941.84
2022-09-15T16:46:43.838Z,100939.16
2022-09-15T16:49:11.301Z,100935.38
2022-09-15T16:51:38.743Z,100927.25
2022-09-15T16:54:15.670Z,100921.28
2022-09-15T16:56:43.548Z,100926.44
2022-09-15T16:59:11.126Z,100911.75
2022-09-15T17:01:39.260Z,100922.84
2022-09-15T17:04:14.999Z,100928.22
2022-09-15T17:06:43.536Z,100917.94
2022-09-15T17:09:10.998Z,100914.09
2022-09-15T17:11:38.568Z,100908.38
2022-09-15T17:14:06.293Z,100925.66
2022-09-15T17:16:33.686Z,100916.16
2022-09-15T17:19:01.188Z,100908.81
2022-09-15T17:21:28.849Z,100904.41
2022-09-15T17:23:56.300Z,100907.38
2022-09-15T17:26:31.236Z,100903.84
2022-09-15T17:28:59.151Z,100899.00
2022-09-15T17:31:28.143Z,100906.88
2022-09-15T17:33:55.830Z,100893.59
2022-09-15T17:36:23.358Z,100900.94
2022-09-15T17:38:50.861Z,100900.44
2022-09-15T17:41:20.561Z,100896.63
2022-09-15T17:43:48.369Z,100899.38
2022-09-15T17:46:15.850Z,100902.09
2022-09-15T17:48:43.403Z,100897.25
2022-09-15T17:51:17.477Z,100898.63
2022-09-15T17:53:48.061Z,100892.72
2022-09-15T17:56:15.633Z,100892.72
2022-09-15T17:58:43.383Z,100888.13
2022-09-15T18:01:15.749Z,100890.81
2022-09-15T18:03:45.072Z,100887.31
2022-09-15T18:06:13.019Z,100886.19
2022-09-15T18:08:41.244Z,100891.28
2022-09-15T18:11:11.160Z,100889.13
2022-09-15T18:13:38.614Z,100894.50
2022-09-15T18:16:11.140Z,100894.22
2022-09-15T18:18:40.479Z,100886.88
2022-09-15T18:21:10.301Z,100886.31
2022-09-15T18:23:38.367Z,100884.13
2022-09-15T18:26:06.100Z,100886.31
2022-09-15T18:28:33.675Z,100875.94
2022-09-15T18:31:01.407Z,100889.50
2022-09-15T18:33:29.033Z,100883.78
2022-09-15T18:35:59.224Z,100885.19
2022-09-15T18:38:26.728Z,100883.53
2022-09-15T18:40:56.501Z,100890.25
2022-09-15T18:43:26.692Z,100895.38
2022-09-15T18:46:03.284Z,100893.50
2022-09-15T18:48:31.240Z,100882.13
2022-09-15T18:50:59.000Z,100876.97
2022-09-15T18:53:26.437Z,100877.47
2022-09-15T18:55:53.921Z,100878.28
2022-09-15T18:58:22.731Z,100879.84
2022-09-15T19:00:50.434Z,100876.06
2022-09-15T19:03:17.902Z,100881.72
2022-09-15T19:05:46.263Z,100879.53
2022-09-15T19:08:13.897Z,100877.31
2022-09-15T19:10:44.387Z,100873.25
2022-09-15T19:13:14.323Z,100872.72
2022-09-15T19:15:44.223Z,100871.09
2022-09-15T19:18:12.341Z,100860.47
2022-09-15T19:20:40.614Z,100880.25
2022-09-15T19:23:09.356Z,100873.22
2022-09-15T19:25:37.109Z,100870.78
2022-09-15T19:28:04.657Z,100878.06
2022-09-15T19:30:32.351Z,100880.75
2022-09-15T19:33:00.056Z,100883.44
2022-09-15T19:35:27.602Z,100878.88
2022-09-15T19:37:55.482Z,100877.25
2022-09-15T19:40:24.049Z,100872.41
2022-09-15T19:42:52.582Z,100859.94
2022-09-15T19:45:21.442Z,100870.78
2022-09-15T19:47:49.008Z,100870.78
2022-09-15T19:50:16.929Z,100849.91
2022-09-15T19:52:44.541Z,100869.16
2022-09-15T19:55:13.322Z,100864.81
2022-09-15T19:57:42.538Z,100862.13
2022-09-15T20:00:12.863Z,100861.28
2022-09-15T20:02:40.654Z,100861.28
2022-09-15T20:05:09.360Z,100854.25
2022-09-15T20:07:37.173Z,100863.19
2022-09-15T20:10:05.662Z,100858.84
2022-09-15T20:12:33.604Z,100866.41
2022-09-15T20:15:01.248Z,100864.78
2022-09-15T20:17:29.310Z,100869.38
2022-09-15T20:19:56.881Z,100856.63
2022-09-15T20:22:24.925Z,100859.38
2022-09-15T20:24:52.481Z,100865.28
2022-09-15T20:27:20.035Z,100865.78
2022-09-15T20:29:47.612Z,100857.16
2022-09-15T20:32:15.414Z,100854.72
2022-09-15T20:34:43.058Z,100849.00
2022-09-15T20:37:10.539Z,100848.19
2022-09-15T20:39:38.318Z,100849.81
2022-09-15T20:42:05.966Z,100856.28
2022-09-15T20:44:33.585Z,100859.78
2022-09-15T20:47:01.117Z,100856.53
2022-09-15T20:49:29.862Z,100855.72
2022-09-15T20:51:57.618Z,100850.31
2022-09-15T20:54:25.176Z,100846.81
2022-09-15T20:56:52.628Z,100851.94
2022-09-15T20:59:20.149Z,100854.41
2022-09-15T21:01:47.821Z,100851.69
2022-09-15T21:04:15.258Z,100843.03
2022-09-15T21:06:42.712Z,100840.41
2022-09-15T21:09:10.228Z,100837.69
2022-09-15T21:11:37.775Z,100840.97
2022-09-15T21:14:05.319Z,100839.88
2022-09-15T21:16:35.166Z,100839.63
2022-09-15T21:19:03.000Z,100845.31
2022-09-15T21:21:32.533Z,100846.44
2022-09-15T21:24:04.291Z,100843.78
2022-09-15T21:26:34.418Z,100836.75
2022-09-15T21:29:01.984Z,100852.47
2022-09-15T21:31:32.311Z,100849.75
2022-09-15T21:34:00.647Z,100841.94
2022-09-15T21:36:30.576Z,100850.88
2022-09-15T21:38:59.685Z,100843.34
2022-09-15T21:41:30.232Z,100841.47
2022-09-15T21:43:59.362Z,100846.84
2022-09-15T21:46:31.564Z,100844.97
2022-09-15T21:49:00.584Z,100851.69
2022-09-15T21:51:29.975Z,100859.53
2022-09-15T21:53:59.399Z,100859.00
2022-09-15T21:56:28.587Z,100868.16
2022-09-15T21:58:56.202Z,100862.72
2022-09-15T22:01:25.530Z,100873.53
2022-09-15T22:03:56.007Z,100868.88
2022-09-15T22:06:27.882Z,100866.41
2022-09-15T22:08:55.702Z,100873.38
2022-09-15T22:11:23.956Z,100866.34
2022-09-15T22:13:51.553Z,100865.25
2022-09-15T22:16:21.467Z,100875.50
2022-09-15T22:18:49.536Z,100871.41
2022-09-15T22:21:19.655Z,100881.88
2022-09-15T22:23:48.625Z,100876.22
2022-09-15T22:26:30.307Z,100870.00
2022-09-15T22:29:00.204Z,100873.44
2022-09-15T22:31:29.857Z,100876.66
2022-09-15T22:33:57.888Z,100876.09
2022-09-15T22:36:29.675Z,100880.94
2022-09-15T22:39:05.879Z,100888.22
2022-09-15T22:41:38.619Z,100884.38
2022-09-15T22:44:07.848Z,100877.59
2022-09-15T22:46:35.462Z,100878.94
2022-09-15T22:49:03.366Z,100876.75
2022-09-15T22:51:30.780Z,100877.50
2022-09-15T22:54:01.050Z,100871.28
2022-09-15T22:56:28.839Z,100864.44
2022-09-15T22:58:56.985Z,100868.53
2022-09-15T23:01:28.216Z,100869.84
2022-09-15T23:03:58.549Z,100871.16
2022-09-15T23:06:28.693Z,100870.59
2022-09-15T23:08:59.220Z,100855.75
2022-09-15T23:11:28.749Z,100856.00
2022-09-15T23:13:56.816Z,100858.13
2022-09-15T23:16:25.272Z,100854.31
2022-09-15T23:18:53.981Z,100855.88
2022-09-15T23:21:22.266Z,100857.75
2022-09-15T23:23:50.324Z,100852.59
2022-09-15T23:26:20.076Z,100859.63
2022-09-15T23:28:49.405Z,100861.47
2022-09-15T23:31:17.749Z,100864.69
2022-09-15T23:33:46.205Z,100862.00
2022-09-15T23:36:16.762Z,100859.31
2022-09-15T23:38:45.606Z,100848.22
2022-09-15T23:41:14.172Z,100853.63
2022-09-15T23:43:41.790Z,100856.56
2022-09-15T23:46:10.170Z,100847.91
2022-09-15T23:48:37.828Z,100854.13
2022-09-15T23:51:06.042Z,100854.63
2022-09-15T23:53:34.517Z,100858.91
2022-09-15T23:56:02.483Z,100851.06
2022-09-15T23:58:30.004Z,100847.31
